Airfield :
LOGIN :

Register | Disclaimer

   EN    FR    IT 

 










Legend :    VFR   Marginal VFR   IFR   Intensive IFR   Very Intensive IFR
Visi :
Ceiling :
>= 8 km
>= 3000ft
5 to 8 km
1000 to 3000 ft
1500m to 5 km
500 to 1000 ft
800 to 1500m
200 to 500 ft
< 800m
< 200 ft
Symbols :   Thunderstorms  Fog  Heavy snow  Heavy precipitations  Wind > 20 kt
SIGMETs :     Misc.  Thunderstorms  Icing  Turbulence  Mountain Waves  Volcanic Ashes







- Airport Elevation : 308 ft
- IATA code : POZ


EPPO - Poznan-Lawica

CURRENT METAR :
  • 152100Z 17001KT 0050 R28/0325 FZFG VV001 M01/M01 Q1031 R10/19//95

EXPIRED METARs :
  • 152030Z 22002KT 0050 R28/0300 FZFG VV001 M01/M01 Q1031 R10/19//95
  • 152000Z 26001KT 0050 R28/0275 FZFG VV001 M00/M00 Q1031 R10/19//95
  • 151930Z 33002KT 0050 R28/0300 FG VV001 00/00 Q1031 R10/19//95
  • 151900Z 32004KT 0050 R28/0375 FG VV001 01/01 Q1031 R10/19//95
  • 151830Z 33003KT 0300 R28/0400 FG VV001 01/01 Q1032 R10/19//95

TAF AMD TAF EPPO
Valid from the 15 at 20:00 until the 16 at 18:00 UTC


152019Z 1520/1618 VRB02KT 0100 FZFG OVC000
TEMPO 1520/1607 0400 FZFG OVC002
BECMG 1607/1610 20010KT CAVOK
BECMG 1612/1615 26010KT
No reported NOTAMs for that airfield.



MET'MAP, your aeronautical weather chart ! - Copyright ORBIFLY December 2007 - Disclaimer

ORBIFLY MET'MAP TEAM :

Programming & Development : Alexandra Zaïnal
Concept & Development : Baudouin d'Aumeries
Co-Development & Prog : Marc-Olivier Méhu
Technical & hardware support : Manuel Goepfert

Contact : metmap@orbifly.com




SOURCES & CREDITS :

   NOAA